createdAt,value
2023-01-20T00:02:41.266Z,-0.11
2023-01-20T00:05:26.465Z,-0.10
2023-01-20T00:08:11.278Z,0.03
2023-01-20T00:10:57.059Z,0.00
2023-01-20T00:13:42.300Z,-0.02
2023-01-20T00:16:28.165Z,-0.03
2023-01-20T00:19:14.357Z,-0.01
2023-01-20T00:21:59.751Z,-0.02
2023-01-20T00:24:44.848Z,0.06
2023-01-20T00:27:29.699Z,0.10
2023-01-20T00:30:14.650Z,0.10
2023-01-20T00:32:59.436Z,0.03
2023-01-20T00:35:44.420Z,0.03
2023-01-20T00:38:29.615Z,0.03
2023-01-20T00:41:15.552Z,0.29
2023-01-20T00:44:00.421Z,0.24
2023-01-20T00:46:45.456Z,0.08
2023-01-20T00:49:30.805Z,-0.05
2023-01-20T00:52:16.087Z,-0.11
2023-01-20T00:55:00.958Z,-0.07
2023-01-20T00:57:46.249Z,-0.12
2023-01-20T01:00:31.567Z,-0.20
2023-01-20T01:03:18.495Z,-0.35
2023-01-20T01:06:12.049Z,-0.40
2023-01-20T01:08:57.598Z,-0.48
2023-01-20T01:11:43.034Z,-0.50
2023-01-20T01:14:30.794Z,-0.50
2023-01-20T01:17:15.714Z,-0.43
2023-01-20T01:20:00.612Z,-0.39
2023-01-20T01:22:45.409Z,-0.28
2023-01-20T01:25:30.519Z,-0.28
2023-01-20T01:28:15.737Z,-0.34
2023-01-20T01:31:02.732Z,-0.30
2023-01-20T01:33:48.656Z,-0.32
2023-01-20T01:36:33.460Z,-0.59
2023-01-20T01:39:18.614Z,-0.59
2023-01-20T01:42:08.763Z,-0.67
2023-01-20T01:45:12.402Z,-0.74
2023-01-20T01:48:18.779Z,-0.63
2023-01-20T01:51:30.175Z,-0.54
2023-01-20T01:54:18.378Z,-0.59
2023-01-20T01:57:07.328Z,-0.65
2023-01-20T01:59:52.682Z,-0.72
2023-01-20T02:02:38.273Z,-0.71
2023-01-20T02:05:25.483Z,-0.75
2023-01-20T02:08:11.192Z,-0.71
2023-01-20T02:10:56.212Z,-0.89
2023-01-20T02:13:41.577Z,-0.97
2023-01-20T02:16:32.138Z,-0.99
2023-01-20T02:19:49.833Z,-0.93
2023-01-20T02:23:13.247Z,-0.77
2023-01-20T02:26:06.987Z,-0.79
2023-01-20T02:29:22.937Z,-0.81
2023-01-20T02:32:23.456Z,-0.84
2023-01-20T02:35:20.073Z,-0.77
2023-01-20T02:38:14.685Z,-0.74
2023-01-20T02:41:06.148Z,-0.79
2023-01-20T02:44:00.381Z,-0.75
2023-01-20T02:47:12.271Z,-0.80
2023-01-20T02:50:21.341Z,-0.81
2023-01-20T02:53:08.454Z,-0.73
2023-01-20T02:55:54.346Z,-0.84
2023-01-20T02:58:48.845Z,-0.94
2023-01-20T03:01:46.290Z,-0.86
2023-01-20T03:04:40.570Z,-0.79
2023-01-20T03:07:29.432Z,-0.89
2023-01-20T03:10:19.249Z,-0.81
2023-01-20T03:13:16.630Z,-0.74
2023-01-20T03:16:10.010Z,-0.73
2023-01-20T03:18:55.388Z,-0.77
2023-01-20T03:21:40.566Z,-0.77
2023-01-20T03:24:29.318Z,-0.75
2023-01-20T03:27:14.263Z,-0.77
2023-01-20T03:29:59.368Z,-0.79
2023-01-20T03:32:48.346Z,-0.92
2023-01-20T03:35:34.144Z,-0.93
2023-01-20T03:38:19.574Z,-0.88
2023-01-20T03:41:13.789Z,-0.82
2023-01-20T03:44:31.179Z,-0.74
2023-01-20T03:47:31.254Z,-0.66
2023-01-20T03:50:16.044Z,-0.71
2023-01-20T03:53:36.269Z,-0.68
2023-01-20T03:56:36.564Z,-0.60
2023-01-20T03:59:23.422Z,-0.41
2023-01-20T04:02:10.348Z,-0.53
2023-01-20T04:04:56.814Z,-0.50
2023-01-20T04:07:45.132Z,-0.46
2023-01-20T04:10:32.583Z,-0.37
2023-01-20T04:13:17.638Z,-0.30
2023-01-20T04:16:09.059Z,-0.22
2023-01-20T04:18:54.554Z,-0.24
2023-01-20T04:21:45.208Z,-0.35
2023-01-20T04:24:38.054Z,-0.30
2023-01-20T04:27:23.389Z,-0.22
2023-01-20T04:30:09.835Z,-0.10
2023-01-20T04:32:55.018Z,-0.12
2023-01-20T04:35:39.979Z,-0.21
2023-01-20T04:38:24.977Z,-0.19
2023-01-20T04:41:11.537Z,-0.17
2023-01-20T04:43:56.693Z,-0.06
2023-01-20T04:46:41.565Z,-0.11
2023-01-20T04:49:27.017Z,-0.20
2023-01-20T04:52:11.861Z,-0.15
2023-01-20T04:54:56.731Z,-0.15
2023-01-20T04:57:42.177Z,-0.16
2023-01-20T05:00:27.604Z,-0.15
2023-01-20T05:03:12.766Z,-0.17
2023-01-20T05:05:57.581Z,-0.20
2023-01-20T05:08:42.872Z,-0.15
2023-01-20T05:11:28.390Z,-0.15
2023-01-20T05:14:13.893Z,-0.09
2023-01-20T05:16:59.054Z,-0.06
2023-01-20T05:19:43.859Z,-0.10
2023-01-20T05:22:29.311Z,-0.06
2023-01-20T05:25:14.770Z,-0.01
2023-01-20T05:27:59.953Z,0.08
2023-01-20T05:30:44.904Z,0.03
2023-01-20T05:33:30.257Z,0.02
2023-01-20T05:36:15.730Z,0.06
2023-01-20T05:39:00.591Z,0.02
2023-01-20T05:41:46.444Z,0.02
2023-01-20T05:44:31.576Z,-0.01
2023-01-20T05:47:16.764Z,0.01
2023-01-20T05:50:02.068Z,-0.02
2023-01-20T05:52:49.313Z,-0.01
2023-01-20T05:55:34.328Z,-0.02
2023-01-20T05:58:19.035Z,-0.01
2023-01-20T06:01:09.980Z,0.03
2023-01-20T06:03:55.315Z,0.03
2023-01-20T06:06:40.627Z,0.00
2023-01-20T06:09:25.994Z,0.01
2023-01-20T06:12:11.064Z,0.03
2023-01-20T06:14:55.942Z,0.08
2023-01-20T06:17:41.397Z,0.04
2023-01-20T06:20:26.866Z,0.06
2023-01-20T06:23:11.823Z,0.02
2023-01-20T06:26:10.538Z,0.07
2023-01-20T06:28:59.520Z,0.07
2023-01-20T06:31:44.650Z,0.12
2023-01-20T06:34:29.895Z,0.06
2023-01-20T06:37:14.823Z,0.10
2023-01-20T06:40:00.159Z,0.10
2023-01-20T06:42:44.978Z,0.13
2023-01-20T06:45:30.606Z,0.14
2023-01-20T06:48:15.474Z,0.15
2023-01-20T06:51:04.371Z,0.17
2023-01-20T06:53:49.677Z,0.15
2023-01-20T06:56:34.700Z,0.17
2023-01-20T06:59:19.872Z,0.18
2023-01-20T07:02:06.113Z,0.14
2023-01-20T07:04:52.311Z,0.14
2023-01-20T07:07:37.331Z,0.13
2023-01-20T07:10:22.221Z,0.10
2023-01-20T07:13:07.159Z,0.12
2023-01-20T07:15:53.140Z,0.18
2023-01-20T07:18:38.957Z,0.17
2023-01-20T07:21:26.424Z,0.15
2023-01-20T07:24:11.755Z,0.15
2023-01-20T07:26:56.924Z,0.19
2023-01-20T07:29:42.025Z,0.22
2023-01-20T07:32:30.526Z,0.24
2023-01-20T07:35:16.453Z,0.20
2023-01-20T07:38:01.610Z,0.34
2023-01-20T07:40:47.088Z,0.30
2023-01-20T07:43:32.945Z,0.26
2023-01-20T07:46:19.380Z,0.20
2023-01-20T07:49:04.702Z,0.25
2023-01-20T07:51:50.264Z,0.23
2023-01-20T07:54:35.487Z,0.32
2023-01-20T07:57:20.435Z,0.22
2023-01-20T08:00:06.492Z,0.27
2023-01-20T08:02:51.750Z,0.34
2023-01-20T08:05:36.529Z,0.41
2023-01-20T08:08:23.102Z,0.44
2023-01-20T08:11:10.311Z,0.51
2023-01-20T08:13:55.659Z,0.44
2023-01-20T08:16:40.545Z,0.32
2023-01-20T08:19:29.036Z,0.30
2023-01-20T08:22:14.097Z,0.39
2023-01-20T08:25:02.277Z,0.44
2023-01-20T08:27:48.540Z,0.55
2023-01-20T08:30:33.746Z,0.61
2023-01-20T08:33:19.275Z,0.65
2023-01-20T08:36:16.403Z,0.79
2023-01-20T08:39:03.544Z,0.60
2023-01-20T08:41:50.147Z,0.63
2023-01-20T08:44:35.444Z,0.64
2023-01-20T08:47:20.298Z,0.56
2023-01-20T08:50:07.084Z,0.52
2023-01-20T08:52:52.446Z,0.42
2023-01-20T08:55:37.759Z,0.48
2023-01-20T08:58:25.201Z,0.51
2023-01-20T09:01:23.102Z,0.52
2023-01-20T09:04:08.206Z,0.55
2023-01-20T09:06:53.142Z,0.55
2023-01-20T09:09:39.090Z,0.48
2023-01-20T09:12:24.386Z,0.45
2023-01-20T09:15:11.549Z,0.53
2023-01-20T09:17:56.664Z,0.51
2023-01-20T09:20:41.731Z,0.53
2023-01-20T09:23:26.770Z,0.51
2023-01-20T09:26:13.285Z,0.54
2023-01-20T09:28:59.747Z,0.61
2023-01-20T09:31:49.204Z,0.56
2023-01-20T09:34:34.648Z,0.63
2023-01-20T09:37:19.762Z,0.69
2023-01-20T09:40:05.621Z,0.77
2023-01-20T09:43:12.211Z,0.73
2023-01-20T09:46:20.247Z,0.69
2023-01-20T09:49:17.782Z,0.76
2023-01-20T09:52:15.506Z,0.74
2023-01-20T09:55:21.424Z,0.72
2023-01-20T09:58:27.970Z,0.68
2023-01-20T10:01:16.337Z,0.63
2023-01-20T10:04:23.194Z,0.79
2023-01-20T10:07:33.602Z,0.92
2023-01-20T10:10:35.812Z,1.01
2023-01-20T10:13:30.109Z,1.04
2023-01-20T10:16:23.508Z,1.09
2023-01-20T10:19:21.097Z,1.05
2023-01-20T10:22:12.367Z,1.07
2023-01-20T10:25:17.435Z,1.09
2023-01-20T10:28:14.095Z,1.12
2023-01-20T10:31:05.157Z,1.22
2023-01-20T10:33:53.918Z,1.24
2023-01-20T10:36:44.087Z,1.18
2023-01-20T10:39:51.504Z,1.19
2023-01-20T10:42:36.608Z,1.17
2023-01-20T10:45:29.679Z,1.16
2023-01-20T10:48:56.008Z,1.14
2023-01-20T10:51:46.243Z,1.19
2023-01-20T10:54:50.477Z,1.26
2023-01-20T10:57:36.280Z,1.37
2023-01-20T11:00:32.364Z,1.30
2023-01-20T11:03:23.090Z,1.33
2023-01-20T11:06:19.433Z,1.33
2023-01-20T11:09:29.437Z,1.41
2023-01-20T11:12:17.301Z,1.42
2023-01-20T11:15:14.298Z,1.43
2023-01-20T11:18:14.477Z,1.49
2023-01-20T11:21:05.784Z,1.56
2023-01-20T11:23:52.730Z,1.54
2023-01-20T11:26:38.330Z,1.55
2023-01-20T11:29:28.353Z,1.56
2023-01-20T11:32:32.412Z,1.53
2023-01-20T11:35:24.026Z,1.55
2023-01-20T11:38:23.973Z,1.47
2023-01-20T11:41:19.954Z,1.53
2023-01-20T11:44:06.501Z,1.45
2023-01-20T11:46:51.772Z,1.51
2023-01-20T11:49:37.246Z,1.43
2023-01-20T11:52:22.551Z,1.40
2023-01-20T11:55:18.016Z,1.37
2023-01-20T11:58:04.032Z,1.36
2023-01-20T12:00:51.480Z,1.34
2023-01-20T12:03:39.612Z,1.30
2023-01-20T12:06:28.591Z,1.34
2023-01-20T12:09:19.881Z,1.35
2023-01-20T12:12:15.963Z,1.29
2023-01-20T12:15:18.147Z,1.31
2023-01-20T12:18:23.203Z,1.42
2023-01-20T12:21:13.250Z,1.39
2023-01-20T12:24:42.068Z,1.52
2023-01-20T12:27:30.101Z,1.56
2023-01-20T12:30:54.086Z,1.50
2023-01-20T12:33:48.050Z,1.46
2023-01-20T12:37:11.461Z,1.41
2023-01-20T12:40:11.197Z,1.55
2023-01-20T12:43:10.559Z,1.68
2023-01-20T12:46:07.554Z,1.79
2023-01-20T12:49:05.149Z,1.77
2023-01-20T12:52:10.906Z,2.02
2023-01-20T12:55:22.032Z,1.82
2023-01-20T12:58:17.005Z,1.67
2023-01-20T13:01:24.125Z,1.88
2023-01-20T13:04:39.957Z,1.75
2023-01-20T13:07:36.404Z,1.75
2023-01-20T13:10:51.668Z,1.84
2023-01-20T13:13:48.039Z,1.83
2023-01-20T13:16:59.812Z,2.10
2023-01-20T13:19:45.672Z,1.99
2023-01-20T13:22:31.330Z,2.01
2023-01-20T13:25:17.164Z,2.02
2023-01-20T13:28:02.747Z,2.02
2023-01-20T13:30:49.904Z,2.23
2023-01-20T13:33:40.380Z,2.22
2023-01-20T13:36:25.843Z,2.15
2023-01-20T13:39:29.706Z,2.05
2023-01-20T13:42:29.903Z,2.01
2023-01-20T13:45:16.591Z,2.12
2023-01-20T13:48:22.250Z,2.16
2023-01-20T13:51:26.597Z,2.23
2023-01-20T13:54:23.878Z,2.28
2023-01-20T13:57:21.517Z,2.32
2023-01-20T14:00:12.210Z,2.37
2023-01-20T14:02:57.435Z,2.40
2023-01-20T14:05:42.845Z,2.51
2023-01-20T14:08:31.044Z,2.42
2023-01-20T14:11:22.017Z,2.52
2023-01-20T14:14:14.779Z,2.60
2023-01-20T14:17:01.916Z,2.60
2023-01-20T14:19:55.379Z,2.45
2023-01-20T14:22:40.810Z,2.27
2023-01-20T14:25:26.855Z,2.20
2023-01-20T14:28:19.233Z,2.28
2023-01-20T14:31:16.677Z,2.41
2023-01-20T14:34:31.219Z,2.25
2023-01-20T14:37:37.652Z,2.33
2023-01-20T14:40:29.917Z,2.23
2023-01-20T14:43:18.293Z,2.12
2023-01-20T14:46:03.959Z,2.23
2023-01-20T14:48:50.412Z,2.17
2023-01-20T14:51:35.588Z,2.12
2023-01-20T14:54:27.446Z,2.28
2023-01-20T14:57:29.387Z,2.32
2023-01-20T15:00:28.026Z,2.24
2023-01-20T15:03:17.984Z,2.21
2023-01-20T15:06:19.150Z,2.21
2023-01-20T15:09:24.616Z,2.27
2023-01-20T15:12:39.025Z,2.37
2023-01-20T15:15:27.609Z,2.39
2023-01-20T15:18:20.060Z,2.27
2023-01-20T15:21:17.200Z,2.12
2023-01-20T15:24:34.920Z,2.33
2023-01-20T15:27:32.024Z,2.32
2023-01-20T15:30:20.580Z,2.29
2023-01-20T15:33:08.998Z,2.34
2023-01-20T15:35:57.023Z,2.18
2023-01-20T15:38:42.281Z,2.08
2023-01-20T15:41:27.407Z,2.03
2023-01-20T15:44:12.300Z,1.96
2023-01-20T15:46:58.225Z,1.89
2023-01-20T15:49:43.341Z,1.92
2023-01-20T15:52:28.512Z,1.74
2023-01-20T15:55:15.930Z,1.77
2023-01-20T15:58:01.243Z,1.75
2023-01-20T16:00:46.152Z,1.75
2023-01-20T16:03:31.607Z,1.73
2023-01-20T16:06:18.692Z,1.73
2023-01-20T16:09:15.726Z,1.70
2023-01-20T16:12:00.522Z,1.60
2023-01-20T16:14:46.150Z,1.54
2023-01-20T16:17:32.982Z,1.53
2023-01-20T16:20:21.709Z,1.44
2023-01-20T16:23:07.209Z,1.45
2023-01-20T16:25:51.999Z,1.31
2023-01-20T16:28:37.094Z,1.30
2023-01-20T16:31:23.506Z,1.25
2023-01-20T16:34:08.470Z,1.20
2023-01-20T16:36:53.293Z,1.10
2023-01-20T16:39:38.143Z,1.13
2023-01-20T16:42:23.091Z,1.02
2023-01-20T16:45:28.764Z,0.98
2023-01-20T16:48:14.064Z,0.86
2023-01-20T16:50:59.644Z,0.69
2023-01-20T16:53:45.187Z,0.66
2023-01-20T16:56:31.817Z,0.63
2023-01-20T16:59:16.802Z,0.68
2023-01-20T17:02:01.663Z,0.63
2023-01-20T17:04:47.272Z,0.60
2023-01-20T17:07:32.563Z,0.66
2023-01-20T17:10:18.511Z,0.62
2023-01-20T17:13:03.853Z,0.65
2023-01-20T17:15:49.009Z,0.62
2023-01-20T17:18:34.371Z,0.71
2023-01-20T17:21:20.805Z,0.66
2023-01-20T17:24:06.297Z,0.65
2023-01-20T17:26:51.355Z,0.59
2023-01-20T17:29:36.655Z,0.57
2023-01-20T17:32:21.468Z,0.50
2023-01-20T17:35:06.942Z,0.45
2023-01-20T17:37:52.284Z,0.37
2023-01-20T17:40:37.094Z,0.39
2023-01-20T17:43:22.599Z,0.31
2023-01-20T17:46:14.064Z,0.34
2023-01-20T17:49:00.519Z,0.31
2023-01-20T17:51:45.563Z,0.27
2023-01-20T17:54:30.761Z,0.28
2023-01-20T17:57:15.728Z,0.29
2023-01-20T18:00:00.662Z,0.17
2023-01-20T18:02:45.973Z,0.08
2023-01-20T18:05:31.077Z,0.05
2023-01-20T18:08:16.458Z,0.01
2023-01-20T18:11:06.031Z,-0.10
2023-01-20T18:13:53.782Z,-0.07
2023-01-20T18:16:40.836Z,-0.16
2023-01-20T18:19:26.269Z,-0.17
2023-01-20T18:22:11.228Z,-0.21
2023-01-20T18:24:56.682Z,-0.27
2023-01-20T18:27:42.066Z,-0.27
2023-01-20T18:30:27.606Z,-0.31
2023-01-20T18:33:13.116Z,-0.25
2023-01-20T18:35:58.292Z,-0.38
2023-01-20T18:38:48.656Z,-0.47
2023-01-20T18:41:37.412Z,-0.58
2023-01-20T18:44:22.854Z,-0.65
2023-01-20T18:47:08.009Z,-0.62
2023-01-20T18:49:52.879Z,-0.71
2023-01-20T18:52:38.333Z,-0.74
2023-01-20T18:55:23.769Z,-0.78
2023-01-20T18:58:08.508Z,-0.71
2023-01-20T19:00:53.546Z,-0.80
2023-01-20T19:03:39.095Z,-0.96
2023-01-20T19:06:26.673Z,-0.94
2023-01-20T19:09:13.082Z,-0.98
2023-01-20T19:11:58.273Z,-1.03
2023-01-20T19:14:43.459Z,-0.86
2023-01-20T19:17:28.361Z,-0.88
2023-01-20T19:20:13.267Z,-0.92
2023-01-20T19:22:58.377Z,-1.00
2023-01-20T19:25:43.076Z,-0.93
2023-01-20T19:28:28.178Z,-1.02
2023-01-20T19:31:19.250Z,-1.11
2023-01-20T19:34:05.802Z,-1.16
2023-01-20T19:36:50.767Z,-1.21
2023-01-20T19:39:35.761Z,-1.21
2023-01-20T19:42:21.257Z,-1.28
2023-01-20T19:45:07.288Z,-1.19
2023-01-20T19:47:52.487Z,-1.26
2023-01-20T19:50:37.860Z,-1.31
2023-01-20T19:53:23.269Z,-1.26
2023-01-20T19:56:16.787Z,-1.26
2023-01-20T19:59:01.855Z,-1.32
2023-01-20T20:01:47.350Z,-1.38
2023-01-20T20:04:32.690Z,-1.42
2023-01-20T20:07:17.683Z,-1.37
2023-01-20T20:10:03.868Z,-1.39
2023-01-20T20:12:48.879Z,-1.36
2023-01-20T20:15:33.636Z,-1.45
2023-01-20T20:18:19.123Z,-1.49
2023-01-20T20:21:04.390Z,-1.51
2023-01-20T20:23:55.225Z,-1.56
2023-01-20T20:26:41.842Z,-1.60
2023-01-20T20:29:27.193Z,-1.60
2023-01-20T20:32:12.239Z,-1.66
2023-01-20T20:34:57.682Z,-1.71
2023-01-20T20:37:42.541Z,-1.64
2023-01-20T20:40:27.334Z,-1.72
2023-01-20T20:43:12.675Z,-1.68
2023-01-20T20:46:02.346Z,-1.77
2023-01-20T20:48:47.353Z,-1.72
2023-01-20T20:51:34.456Z,-1.74
2023-01-20T20:54:19.540Z,-1.68
2023-01-20T20:57:05.000Z,-1.56
2023-01-20T20:59:58.885Z,-1.73
2023-01-20T21:02:44.942Z,-1.87
2023-01-20T21:05:30.089Z,-1.88
2023-01-20T21:08:16.135Z,-1.95
2023-01-20T21:11:02.954Z,-1.91
2023-01-20T21:13:48.092Z,-1.89
2023-01-20T21:16:34.211Z,-1.92
2023-01-20T21:19:19.535Z,-1.93
2023-01-20T21:22:04.616Z,-1.76
2023-01-20T21:24:49.909Z,-1.86
2023-01-20T21:27:35.367Z,-1.91
2023-01-20T21:30:21.008Z,-2.05
2023-01-20T21:33:06.037Z,-2.11
2023-01-20T21:35:51.502Z,-2.13
2023-01-20T21:38:36.945Z,-2.04
2023-01-20T21:41:22.210Z,-2.07
2023-01-20T21:44:11.914Z,-2.11
2023-01-20T21:47:02.055Z,-2.20
2023-01-20T21:49:47.126Z,-2.26
2023-01-20T21:52:32.692Z,-2.28
2023-01-20T21:55:19.399Z,-2.30
2023-01-20T21:58:04.409Z,-2.37
2023-01-20T22:00:54.599Z,-2.28
2023-01-20T22:03:40.089Z,-2.33
2023-01-20T22:06:25.433Z,-2.33
2023-01-20T22:09:10.684Z,-2.04
2023-01-20T22:11:55.787Z,-2.23
2023-01-20T22:14:41.032Z,-2.29
2023-01-20T22:17:26.447Z,-2.30
2023-01-20T22:20:12.091Z,-2.39
2023-01-20T22:22:57.480Z,-2.42
2023-01-20T22:25:42.798Z,-2.46
2023-01-20T22:28:32.123Z,-2.44
2023-01-20T22:31:19.290Z,-2.44
2023-01-20T22:34:04.378Z,-2.55
2023-01-20T22:36:49.504Z,-2.51
2023-01-20T22:39:34.967Z,-2.59
2023-01-20T22:42:19.925Z,-2.76
2023-01-20T22:45:06.050Z,-2.90
2023-01-20T22:47:55.084Z,-3.00
2023-01-20T22:50:40.184Z,-3.01
2023-01-20T22:53:25.596Z,-2.99
2023-01-20T22:56:12.918Z,-2.73
2023-01-20T22:58:59.260Z,-2.98
2023-01-20T23:01:44.721Z,-3.01
2023-01-20T23:04:29.627Z,-2.92
2023-01-20T23:07:15.047Z,-3.04
2023-01-20T23:09:59.986Z,-2.95
2023-01-20T23:12:45.424Z,-3.07
2023-01-20T23:15:30.746Z,-3.02
2023-01-20T23:18:16.152Z,-3.07
2023-01-20T23:21:01.381Z,-3.12
2023-01-20T23:23:47.175Z,-3.07
2023-01-20T23:26:32.570Z,-3.11
2023-01-20T23:29:17.784Z,-3.17
2023-01-20T23:32:03.917Z,-3.16
2023-01-20T23:34:49.130Z,-3.11
2023-01-20T23:37:34.351Z,-3.10
2023-01-20T23:40:19.436Z,-3.05
2023-01-20T23:43:04.725Z,-2.96
2023-01-20T23:45:50.056Z,-2.97
2023-01-20T23:48:36.169Z,-2.92
2023-01-20T23:51:21.199Z,-2.95
2023-01-20T23:54:06.266Z,-2.97
2023-01-20T23:56:51.074Z,-2.93
2023-01-20T23:59:35.933Z,-2.94
